Time;durP1;ratioP1;P1;durP2;ratioP2;P2;SDS_P1;SDS_P2;PMS_P1;PMS_P2;Temp;Humidity;BMP_temperature;BMP_pressure;BME280_temperature;BME280_humidity;BME280_pressure;Samples;Min_cycle;Max_cycle;Signal;HPM_P1;HPM_P2
2022/04/19 00:00:16;;;;;;;7.30;4.00;;;10.40;99.90;;;;;;5037619;28;20485;-79
2022/04/19 00:02:43;;;;;;;6.47;5.03;;;10.40;99.90;;;;;;5022948;28;20468;-81
2022/04/19 00:05:10;;;;;;;6.57;4.30;;;10.30;99.90;;;;;;5036805;28;20519;-81
2022/04/19 00:07:37;;;;;;;6.67;4.20;;;10.20;99.90;;;;;;5033830;28;20464;-81
2022/04/19 00:10:06;;;;;;;7.20;5.33;;;10.10;99.90;;;;;;5029297;28;20577;-81
2022/04/19 00:12:33;;;;;;;5.87;4.20;;;10.00;99.90;;;;;;5028653;28;20449;-82
2022/04/19 00:15:01;;;;;;;6.63;4.47;;;9.90;99.90;;;;;;5028342;28;20502;-82
2022/04/19 00:17:28;;;;;;;7.13;4.40;;;9.90;99.90;;;;;;5035907;28;20973;-82
2022/04/19 00:19:55;;;;;;;6.93;4.73;;;9.80;99.90;;;;;;5031926;28;20459;-82
2022/04/19 00:22:21;;;;;;;7.00;4.70;;;9.70;99.90;;;;;;5033785;28;20553;-82
2022/04/19 00:24:49;;;;;;;7.00;4.47;;;9.70;99.90;;;;;;5037380;28;20489;-82
2022/04/19 00:27:17;;;;;;;6.67;4.50;;;9.60;99.90;;;;;;5036938;28;20492;-81
2022/04/19 00:29:45;;;;;;;9.27;4.63;;;9.50;99.90;;;;;;5038452;28;20503;-82
2022/04/19 00:32:12;;;;;;;6.70;5.00;;;9.50;99.90;;;;;;5036663;28;20460;-81
2022/04/19 00:34:39;;;;;;;7.83;4.83;;;9.50;99.90;;;;;;5034025;28;20534;-81
2022/04/19 00:37:06;;;;;;;7.50;4.33;;;9.40;99.90;;;;;;5036387;28;20484;-82
2022/04/19 00:39:33;;;;;;;7.27;4.47;;;9.40;99.90;;;;;;5036386;28;20472;-81
2022/04/19 00:42:00;;;;;;;6.70;4.70;;;9.30;99.90;;;;;;5036501;28;20442;-82
2022/04/19 00:44:28;;;;;;;5.83;4.53;;;9.30;99.90;;;;;;5035331;28;20489;-81
2022/04/19 00:46:55;;;;;;;7.27;4.37;;;9.20;99.90;;;;;;5036833;28;20541;-82
2022/04/19 00:49:22;;;;;;;6.93;4.57;;;9.20;1.00;;;;;;5035501;28;20541;-82
2022/04/19 00:51:49;;;;;;;6.63;4.40;;;9.20;99.90;;;;;;5037905;28;20449;-80
2022/04/19 00:54:18;;;;;;;7.67;5.33;;;9.10;99.90;;;;;;5048266;28;20459;-80
2022/04/19 00:56:46;;;;;;;6.80;4.50;;;9.10;99.90;;;;;;5050397;28;21046;-81
2022/04/19 00:59:13;;;;;;;8.43;5.00;;;9.00;99.90;;;;;;5050242;28;20543;-81
2022/04/19 01:01:42;;;;;;;7.70;5.00;;;9.00;99.90;;;;;;5038601;28;20473;-81
2022/04/19 01:04:09;;;;;;;6.47;5.10;;;9.00;99.90;;;;;;5049316;28;20582;-81
2022/04/19 01:06:36;;;;;;;6.30;4.93;;;8.90;99.90;;;;;;5050292;28;20480;-81
2022/04/19 01:09:03;;;;;;;11.17;4.90;;;8.90;99.90;;;;;;5043227;28;20499;-82
2022/04/19 01:14:15;;;;;;;7.07;5.07;;;8.70;99.90;;;;;;5037222;28;20462;-82
2022/04/19 01:16:43;;;;;;;8.50;5.70;;;8.60;99.90;;;;;;5037149;28;20461;-82
2022/04/19 01:19:15;;;;;;;6.50;4.90;;;8.60;99.90;;;;;;5037715;28;20465;-81
2022/04/19 01:21:46;;;;;;;8.60;5.70;;;8.60;99.90;;;;;;5026181;28;20481;-82
2022/04/19 01:24:18;;;;;;;8.50;5.43;;;8.50;99.90;;;;;;5019604;28;20482;-81
2022/04/19 01:26:45;;;;;;;9.30;5.43;;;8.50;99.90;;;;;;5028738;28;20552;-82
2022/04/19 01:29:13;;;;;;;9.63;4.57;;;8.40;99.90;;;;;;5046213;28;20560;-80
2022/04/19 01:31:42;;;;;;;8.83;5.53;;;8.40;99.90;;;;;;5048044;28;20451;-83
2022/04/19 01:34:09;;;;;;;8.60;5.47;;;8.40;99.90;;;;;;5034900;28;20489;-81
2022/04/19 01:36:37;;;;;;;8.03;5.07;;;8.30;99.90;;;;;;5037414;28;20706;-80
2022/04/19 01:39:06;;;;;;;6.80;4.83;;;8.20;99.90;;;;;;5035729;28;20443;-81
2022/04/19 01:41:33;;;;;;;8.10;5.53;;;8.20;99.90;;;;;;5036124;28;20903;-81
2022/04/19 01:44:00;;;;;;;7.10;4.60;;;8.20;99.90;;;;;;5035456;28;20493;-82
2022/04/19 01:46:27;;;;;;;6.73;5.00;;;8.10;99.90;;;;;;5039523;28;20454;-80
2022/04/19 01:48:55;;;;;;;6.50;5.10;;;8.10;99.90;;;;;;5040655;28;20479;-82
2022/04/19 01:51:21;;;;;;;11.20;6.20;;;8.00;99.90;;;;;;5039703;28;20465;-81
2022/04/19 01:53:49;;;;;;;6.00;4.60;;;8.00;99.90;;;;;;5039668;28;20443;-81
2022/04/19 01:56:17;;;;;;;7.17;5.80;;;7.90;99.90;;;;;;5038767;28;20495;-81
2022/04/19 01:58:45;;;;;;;8.77;4.50;;;7.90;99.90;;;;;;5039952;28;20452;-82
2022/04/19 02:01:11;;;;;;;7.97;5.00;;;7.80;99.90;;;;;;5038887;28;20479;-82
2022/04/19 02:03:38;;;;;;;7.50;5.60;;;7.80;99.90;;;;;;5039424;28;20455;-80
2022/04/19 02:06:08;;;;;;;7.43;5.10;;;7.80;99.90;;;;;;5039670;28;20985;-81
2022/04/19 02:08:35;;;;;;;7.30;5.03;;;7.80;99.90;;;;;;5039264;28;20461;-81
2022/04/19 02:11:01;;;;;;;8.90;5.90;;;7.80;99.90;;;;;;5039250;28;20484;-81
2022/04/19 02:13:30;;;;;;;7.73;5.50;;;7.80;99.90;;;;;;5039160;28;20463;-81
2022/04/19 02:15:58;;;;;;;8.13;5.17;;;7.70;99.90;;;;;;5038494;28;20487;-81
2022/04/19 02:18:25;;;;;;;8.33;5.33;;;7.70;99.90;;;;;;5039073;28;20554;-81
2022/04/19 02:20:52;;;;;;;12.20;5.10;;;7.70;99.90;;;;;;5039519;28;20476;-80
2022/04/19 02:23:19;;;;;;;8.70;5.27;;;7.70;99.90;;;;;;5037556;28;21354;-81
2022/04/19 02:25:46;;;;;;;6.93;4.67;;;7.60;99.90;;;;;;5019315;28;20491;-81
2022/04/19 02:28:13;;;;;;;7.23;4.53;;;7.60;99.90;;;;;;5019843;28;20452;-81
2022/04/19 02:30:41;;;;;;;7.53;5.00;;;7.50;99.90;;;;;;5051495;28;21259;-81
2022/04/19 02:33:08;;;;;;;7.20;4.70;;;7.50;99.90;;;;;;5057600;28;20450;-78
2022/04/19 02:35:35;;;;;;;7.47;4.93;;;7.50;99.90;;;;;;5038196;28;20484;-81
2022/04/19 02:38:02;;;;;;;8.33;5.50;;;7.50;99.90;;;;;;5037876;28;20453;-81
2022/04/19 02:40:28;;;;;;;8.23;5.00;;;7.40;99.90;;;;;;5038402;28;20475;-81
2022/04/19 02:42:56;;;;;;;7.40;4.90;;;7.40;99.90;;;;;;5038153;28;20452;-80
2022/04/19 02:45:24;;;;;;;8.90;5.30;;;7.30;99.90;;;;;;5065943;22;20488;-78
2022/04/19 02:48:03;;;;;;;8.43;5.70;;;7.30;99.90;;;;;;5040942;28;20453;-78
2022/04/19 02:50:29;;;;;;;8.30;5.73;;;7.30;99.90;;;;;;5029135;28;20448;-78
2022/04/19 02:52:56;;;;;;;8.33;6.20;;;7.30;99.90;;;;;;5033796;28;20457;-78
2022/04/19 02:55:23;;;;;;;8.57;6.17;;;7.30;99.90;;;;;;5034231;28;20797;-79
2022/04/19 02:57:50;;;;;;;8.43;5.47;;;7.20;99.90;;;;;;5035039;28;20460;-78
2022/04/19 03:00:17;;;;;;;8.20;5.30;;;7.20;99.90;;;;;;5032056;28;20458;-79
2022/04/19 03:02:44;;;;;;;9.57;6.50;;;7.20;99.90;;;;;;5034296;28;20445;-79
2022/04/19 03:05:12;;;;;;;6.93;5.43;;;7.10;99.90;;;;;;5033172;28;20556;-78
2022/04/19 03:07:39;;;;;;;8.13;6.20;;;7.10;99.90;;;;;;5035029;28;20456;-79
2022/04/19 03:10:07;;;;;;;10.37;5.77;;;7.10;99.90;;;;;;5033053;28;20452;-78
2022/04/19 03:12:34;;;;;;;9.00;5.40;;;7.10;99.90;;;;;;5034517;28;20452;-78
2022/04/19 03:15:01;;;;;;;9.17;6.37;;;7.10;99.90;;;;;;5033595;28;20465;-79
2022/04/19 03:17:28;;;;;;;9.00;6.53;;;7.00;99.90;;;;;;5028183;28;20818;-78
2022/04/19 03:19:55;;;;;;;8.77;6.43;;;6.90;99.90;;;;;;5034143;28;20979;-78
2022/04/19 03:22:23;;;;;;;8.27;5.70;;;6.90;99.90;;;;;;5034300;28;20463;-79
2022/04/19 03:27:48;;;;;;;8.60;5.17;;;6.90;99.90;;;;;;4992255;28;21053;-78
2022/04/19 03:30:15;;;;;;;9.50;5.83;;;6.80;99.90;;;;;;4972991;28;20956;-78
2022/04/19 03:32:44;;;;;;;8.30;5.83;;;6.80;99.90;;;;;;4999843;28;20452;-78
2022/04/19 03:35:11;;;;;;;7.90;6.20;;;6.80;99.90;;;;;;5033083;28;20476;-78
2022/04/19 03:37:39;;;;;;;10.53;7.17;;;6.80;99.90;;;;;;5033685;28;20457;-78
2022/04/19 03:40:07;;;;;;;10.00;7.10;;;6.70;99.90;;;;;;5034190;28;20453;-78
2022/04/19 03:42:34;;;;;;;8.27;6.37;;;6.70;99.90;;;;;;5033812;28;20448;-78
2022/04/19 03:45:01;;;;;;;10.60;6.87;;;6.70;99.90;;;;;;5033054;28;20481;-78
2022/04/19 03:47:28;;;;;;;9.47;6.67;;;6.70;99.90;;;;;;5033333;28;20964;-78
2022/04/19 03:49:54;;;;;;;13.13;7.70;;;6.70;99.90;;;;;;5033286;28;20918;-78
2022/04/19 03:52:21;;;;;;;11.03;8.40;;;6.70;99.90;;;;;;5033835;28;20469;-78
2022/04/19 03:54:49;;;;;;;12.97;9.37;;;6.70;99.90;;;;;;5015138;28;20488;-78
2022/04/19 03:57:17;;;;;;;10.70;8.60;;;6.70;99.90;;;;;;5014132;28;20456;-78
2022/04/19 03:59:44;;;;;;;11.50;8.82;;;6.80;99.90;;;;;;5029525;28;20468;-80
2022/04/19 04:02:11;;;;;;;13.40;9.20;;;6.70;99.90;;;;;;5033494;28;20201;-80
2022/04/19 04:04:38;;;;;;;15.07;8.63;;;6.80;99.90;;;;;;5031955;28;20655;-80
2022/04/19 04:07:07;;;;;;;13.30;10.13;;;6.90;99.90;;;;;;5032792;28;20463;-80
2022/04/19 04:09:35;;;;;;;12.77;8.73;;;7.00;99.90;;;;;;5031590;28;20457;-79
2022/04/19 04:12:04;;;;;;;12.07;8.37;;;7.00;99.90;;;;;;5033836;28;20457;-79
2022/04/19 04:14:31;;;;;;;12.30;9.60;;;7.00;99.90;;;;;;5031698;28;20480;-79
2022/04/19 04:16:59;;;;;;;11.37;9.60;;;7.10;99.90;;;;;;5033153;28;20453;-80
2022/04/19 04:19:25;;;;;;;12.57;9.50;;;7.10;99.90;;;;;;5033692;28;20455;-80
2022/04/19 04:21:52;;;;;;;12.03;8.93;;;7.20;99.90;;;;;;5033568;28;21017;-79
2022/04/19 04:24:19;;;;;;;12.50;8.93;;;7.20;99.90;;;;;;5032774;28;20480;-80
2022/04/19 04:26:46;;;;;;;12.13;9.33;;;7.30;99.90;;;;;;5032431;28;20489;-79
2022/04/19 04:29:14;;;;;;;10.00;8.10;;;7.30;99.90;;;;;;5032679;28;20453;-80
2022/04/19 04:31:41;;;;;;;13.83;9.13;;;7.30;99.90;;;;;;5035598;28;20495;-79
2022/04/19 04:34:08;;;;;;;15.47;10.13;;;7.20;99.90;;;;;;5033361;28;20477;-79
2022/04/19 04:36:35;;;;;;;12.97;9.30;;;7.20;99.90;;;;;;5034315;28;20445;-79
2022/04/19 04:39:03;;;;;;;12.47;9.47;;;7.20;99.90;;;;;;5034220;28;20453;-78
2022/04/19 04:41:30;;;;;;;14.23;9.90;;;7.20;99.90;;;;;;5034530;28;20540;-79
2022/04/19 04:43:57;;;;;;;13.30;9.57;;;7.20;99.90;;;;;;5021417;28;20470;-79
2022/04/19 04:51:53;;;;;;;17.20;9.63;;;7.20;99.90;;;;;;5032953;28;20805;-78
2022/04/19 04:54:20;;;;;;;12.47;8.70;;;7.10;99.90;;;;;;5022230;28;21367;-79
2022/04/19 04:56:47;;;;;;;14.10;8.87;;;7.10;99.90;;;;;;5017179;28;20467;-80
2022/04/19 04:59:14;;;;;;;12.80;9.30;;;7.10;99.90;;;;;;5034643;28;20467;-79
2022/04/19 05:01:42;;;;;;;11.27;8.33;;;7.10;99.90;;;;;;5034772;28;20450;-78
2022/04/19 05:04:09;;;;;;;10.53;8.37;;;7.10;99.90;;;;;;5035963;28;20476;-80
2022/04/19 05:06:36;;;;;;;15.20;9.93;;;7.10;99.90;;;;;;5037946;28;20571;-78
2022/04/19 05:09:03;;;;;;;13.33;9.03;;;7.10;99.90;;;;;;5034252;28;21008;-80
2022/04/19 05:11:29;;;;;;;15.10;9.73;;;7.10;99.90;;;;;;5036073;28;20948;-79
2022/04/19 05:13:56;;;;;;;11.60;8.20;;;7.20;99.90;;;;;;5035055;28;20473;-80
2022/04/19 05:16:23;;;;;;;10.80;8.70;;;7.20;99.90;;;;;;5035658;28;20448;-79
2022/04/19 05:18:51;;;;;;;13.23;9.23;;;7.30;99.90;;;;;;5025870;28;20450;-79
2022/04/19 05:21:18;;;;;;;15.37;10.43;;;7.30;99.90;;;;;;5015999;28;20461;-79
2022/04/19 05:23:44;;;;;;;12.63;9.17;;;7.40;99.90;;;;;;5021388;28;20460;-80
2022/04/19 05:26:11;;;;;;;14.23;9.70;;;7.40;99.90;;;;;;5035871;28;20962;-80
2022/04/19 05:28:38;;;;;;;12.37;8.50;;;7.50;99.90;;;;;;5035627;28;20456;-79
2022/04/19 05:31:05;;;;;;;13.17;9.40;;;7.50;99.90;;;;;;5036308;28;20539;-79
2022/04/19 05:33:31;;;;;;;13.67;7.43;;;7.60;99.90;;;;;;5035854;28;20540;-79
2022/04/19 05:36:00;;;;;;;13.20;8.73;;;7.70;99.90;;;;;;5036778;28;20478;-80
2022/04/19 05:38:27;;;;;;;16.33;9.90;;;7.80;99.90;;;;;;5033936;28;20468;-79
2022/04/19 05:40:54;;;;;;;14.53;8.60;;;7.80;99.90;;;;;;5042116;28;20460;-78
2022/04/19 05:43:20;;;;;;;13.07;9.43;;;7.90;99.90;;;;;;5040577;28;20448;-80
2022/04/19 05:45:47;;;;;;;14.00;9.37;;;8.00;99.90;;;;;;5038222;28;20499;-80
2022/04/19 05:48:14;;;;;;;14.43;9.10;;;8.00;99.90;;;;;;5035260;28;20453;-79
2022/04/19 05:50:41;;;;;;;12.83;8.87;;;8.10;99.90;;;;;;5039978;28;20449;-79
2022/04/19 05:53:09;;;;;;;14.20;8.93;;;8.20;99.90;;;;;;5038698;28;20483;-79
2022/04/19 05:55:36;;;;;;;15.47;8.03;;;8.20;99.90;;;;;;5024429;28;20477;-80
2022/04/19 05:58:03;;;;;;;10.57;7.50;;;8.30;99.90;;;;;;5037744;28;20961;-81
2022/04/19 06:00:29;;;;;;;13.50;8.27;;;8.40;99.90;;;;;;5044731;28;20843;-79
2022/04/19 06:05:40;;;;;;;16.77;9.13;;;8.60;99.90;;;;;;5043770;28;20503;-78
2022/04/19 06:08:09;;;;;;;13.70;8.10;;;8.70;99.90;;;;;;5042757;28;20453;-81
2022/04/19 06:10:36;;;;;;;13.00;8.20;;;8.80;99.90;;;;;;5041936;28;20448;-83
2022/04/19 06:13:03;;;;;;;15.07;10.87;;;8.80;99.90;;;;;;5041164;28;20476;-79
2022/04/19 06:15:31;;;;;;;12.67;7.30;;;8.90;99.90;;;;;;5041629;28;20467;-79
2022/04/19 06:17:58;;;;;;;15.00;7.83;;;9.00;99.90;;;;;;5034190;28;20461;-80
2022/04/19 06:20:25;;;;;;;12.87;7.57;;;9.10;99.90;;;;;;5031677;28;20474;-79
2022/04/19 06:22:52;;;;;;;12.70;7.17;;;9.20;99.90;;;;;;5036015;28;20481;-79
2022/04/19 06:25:20;;;;;;;11.67;6.90;;;9.30;99.90;;;;;;5037170;28;20533;-79
2022/04/19 06:27:47;;;;;;;10.83;6.60;;;9.40;99.90;;;;;;5039040;28;20457;-80
2022/04/19 06:30:14;;;;;;;11.63;6.90;;;9.50;99.90;;;;;;5039151;28;20664;-79
2022/04/19 06:32:42;;;;;;;8.90;5.83;;;9.50;99.90;;;;;;5039517;28;20454;-79
2022/04/19 06:35:09;;;;;;;8.53;6.67;;;9.60;99.90;;;;;;5070498;22;20498;-80
2022/04/19 06:37:36;;;;;;;10.13;6.57;;;9.70;99.90;;;;;;5088199;28;20466;-80
2022/04/19 06:40:06;;;;;;;10.70;6.47;;;9.80;99.90;;;;;;5081690;28;20449;-79
2022/04/19 06:42:35;;;;;;;10.23;5.60;;;9.90;99.90;;;;;;5076357;28;20913;-79
2022/04/19 06:45:08;;;;;;;9.93;6.00;;;10.00;99.90;;;;;;5074239;28;20573;-78
2022/04/19 06:47:38;;;;;;;10.50;6.00;;;10.10;99.90;;;;;;5064798;28;20586;-81
2022/04/19 06:50:06;;;;;;;11.33;6.37;;;10.20;99.90;;;;;;5066511;28;20469;-80
2022/04/19 06:52:33;;;;;;;11.90;6.40;;;10.30;99.90;;;;;;5070795;28;20546;-79
2022/04/19 06:55:00;;;;;;;9.90;5.87;;;10.40;99.90;;;;;;5074423;28;20479;-79
2022/04/19 06:57:27;;;;;;;9.80;6.67;;;10.50;99.90;;;;;;5077645;28;20480;-79
2022/04/19 06:59:55;;;;;;;12.63;6.47;;;10.60;99.90;;;;;;5074757;28;20444;-81
2022/04/19 07:02:22;;;;;;;10.13;7.03;;;10.70;99.90;;;;;;5079814;28;20461;-81
2022/04/19 07:04:49;;;;;;;9.33;6.23;;;10.70;99.90;;;;;;5078654;28;20450;-80
2022/04/19 07:07:16;;;;;;;10.27;6.17;;;10.90;99.90;;;;;;5092497;28;20497;-80
2022/04/19 07:09:42;;;;;;;12.03;8.20;;;11.00;99.90;;;;;;5082621;28;20449;-81
2022/04/19 07:12:10;;;;;;;8.80;6.10;;;11.10;99.90;;;;;;5072023;28;20448;-80
2022/04/19 07:14:37;;;;;;;9.17;6.33;;;11.10;99.90;;;;;;5071439;28;20483;-79
2022/04/19 07:17:05;;;;;;;9.57;7.50;;;11.20;99.90;;;;;;5067355;28;20523;-81
2022/04/19 07:26:37;;;;;;;10.90;6.93;;;11.40;99.90;;;;;;5066747;28;20966;-79
2022/04/19 07:28:01;;;;;;;9.33;6.90;;;12.00;99.90;;;;;;5038895;28;20482;-79
2022/04/19 07:30:28;;;;;;;9.60;6.90;;;12.10;99.90;;;;;;5065841;28;20454;-79
2022/04/19 07:32:57;;;;;;;9.40;6.37;;;12.40;99.90;;;;;;5077847;28;20461;-78
2022/04/19 07:35:24;;;;;;;10.57;6.73;;;12.90;99.90;;;;;;5062648;28;20479;-79
2022/04/19 07:37:51;;;;;;;11.50;7.17;;;13.20;99.90;;;;;;5074884;28;20452;-79
2022/04/19 07:40:18;;;;;;;11.77;6.77;;;13.50;99.90;;;;;;5058832;28;20461;-79
2022/04/19 07:42:45;;;;;;;12.63;7.37;;;13.80;99.90;;;;;;5060960;28;20539;-79
2022/04/19 07:45:12;;;;;;;15.10;6.70;;;13.80;99.90;;;;;;5065350;28;20487;-80
2022/04/19 07:47:39;;;;;;;10.73;7.27;;;14.00;99.90;;;;;;5062887;28;20868;-78
2022/04/19 07:50:07;;;;;;;10.30;7.00;;;13.90;99.90;;;;;;5061625;28;20474;-79
2022/04/19 07:52:35;;;;;;;10.20;6.87;;;13.90;99.90;;;;;;5061899;28;20436;-79
2022/04/19 07:55:01;;;;;;;9.47;6.57;;;14.10;99.90;;;;;;5061642;28;20522;-80
2022/04/19 07:57:28;;;;;;;9.67;8.00;;;14.20;99.90;;;;;;5062058;28;20456;-80
2022/04/19 07:59:55;;;;;;;9.57;6.20;;;14.70;99.90;;;;;;5061774;28;21072;-78
2022/04/19 08:02:22;;;;;;;10.93;6.87;;;15.80;99.90;;;;;;5062360;28;20545;-82
2022/04/19 08:04:55;;;;;;;8.30;6.27;;;16.90;99.90;;;;;;5063679;28;20473;-82
2022/04/19 08:07:23;;;;;;;10.60;7.07;;;17.60;99.90;;;;;;5059488;28;20565;-82
2022/04/19 08:09:50;;;;;;;9.60;6.70;;;17.70;99.90;;;;;;5065913;28;20961;-80
2022/04/19 08:12:16;;;;;;;10.37;7.13;;;17.60;99.90;;;;;;5076648;28;20450;-83
2022/04/19 08:14:43;;;;;;;8.67;6.30;;;18.20;99.90;;;;;;5064193;28;20558;-81
2022/04/19 08:17:11;;;;;;;8.63;6.67;;;19.00;99.90;;;;;;5059133;28;20454;-82
2022/04/19 08:19:38;;;;;;;7.87;6.40;;;20.20;99.90;;;;;;5069817;28;20457;-81
2022/04/19 08:22:05;;;;;;;8.43;6.20;;;21.90;99.90;;;;;;5059967;28;20486;-82
2022/04/19 08:24:33;;;;;;;9.70;6.30;;;22.60;97.10;;;;;;5058833;28;20535;-82
2022/04/19 08:27:00;;;;;;;8.73;6.47;;;23.50;93.80;;;;;;5050876;28;20490;-82
2022/04/19 08:29:27;;;;;;;7.77;6.20;;;24.50;90.10;;;;;;5059848;28;20454;-82
2022/04/19 08:31:54;;;;;;;7.83;5.60;;;25.80;83.30;;;;;;5060790;28;21019;-82
2022/04/19 08:34:21;;;;;;;8.40;6.10;;;26.70;72.70;;;;;;5059988;28;20494;-84
2022/04/19 08:36:47;;;;;;;5.70;5.10;;;26.80;68.60;;;;;;5060773;28;20472;-82
2022/04/19 08:39:14;;;;;;;7.27;5.40;;;25.80;64.80;;;;;;5061415;28;20521;-81
2022/04/19 08:41:43;;;;;;;6.67;5.07;;;25.50;63.80;;;;;;5059301;28;20452;-82
2022/04/19 08:44:11;;;;;;;9.23;5.13;;;25.80;62.50;;;;;;5060690;28;20467;-82
2022/04/19 08:46:39;;;;;;;6.53;5.80;;;25.30;58.90;;;;;;5062287;28;20512;-81
2022/04/19 08:49:06;;;;;;;6.20;5.17;;;25.50;59.20;;;;;;5061827;28;20448;-81
2022/04/19 08:51:35;;;;;;;6.60;4.60;;;25.80;62.70;;;;;;5056572;28;20532;-82
2022/04/19 08:59:33;;;;;;;5.83;4.60;;;27.40;57.00;;;;;;5063048;28;20557;-81
2022/04/19 09:02:01;;;;;;;6.83;4.67;;;28.70;57.10;;;;;;5063295;28;20444;-81
2022/04/19 09:04:28;;;;;;;6.37;5.17;;;27.50;59.10;;;;;;5063070;28;20466;-79
2022/04/19 09:06:56;;;;;;;8.20;4.90;;;28.10;55.80;;;;;;5064087;28;20489;-80
2022/04/19 09:09:24;;;;;;;5.40;4.60;;;29.20;56.60;;;;;;5065628;28;20542;-80
2022/04/19 09:11:55;;;;;;;6.80;4.63;;;29.10;56.90;;;;;;5061364;28;20523;-80
2022/04/19 09:14:23;;;;;;;6.00;4.37;;;29.40;55.10;;;;;;5060108;28;20500;-80
2022/04/19 09:17:03;;;;;;;6.97;4.80;;;30.20;53.10;;;;;;5060365;28;20456;-79
2022/04/19 09:19:30;;;;;;;6.60;5.03;;;29.80;50.40;;;;;;5061440;28;20448;-80
2022/04/19 09:21:58;;;;;;;7.67;4.17;;;28.10;50.30;;;;;;5062166;28;20960;-81
2022/04/19 09:24:26;;;;;;;6.40;4.50;;;27.80;50.70;;;;;;5061447;28;20479;-79
2022/04/19 09:26:55;;;;;;;6.27;4.20;;;27.00;49.00;;;;;;5062762;28;20490;-79
2022/04/19 09:29:23;;;;;;;5.70;3.83;;;27.70;51.40;;;;;;5055750;28;20555;-79
2022/04/19 09:31:54;;;;;;;5.70;3.83;;;27.00;51.20;;;;;;5057326;28;20456;-80
2022/04/19 09:34:26;;;;;;;5.53;3.70;;;27.20;54.40;;;;;;5061346;28;20483;-80
2022/04/19 09:36:54;;;;;;;5.00;3.50;;;27.90;53.20;;;;;;5063284;28;20445;-78
2022/04/19 09:39:27;;;;;;;6.17;3.90;;;28.50;50.80;;;;;;5064379;28;20837;-80
2022/04/19 09:42:03;;;;;;;5.37;3.43;;;30.10;52.80;;;;;;5062985;28;20459;-80
2022/04/19 09:44:31;;;;;;;5.73;4.40;;;30.40;49.80;;;;;;5061993;28;20463;-79
2022/04/19 09:47:05;;;;;;;5.00;3.70;;;30.80;50.80;;;;;;5063791;28;20890;-81
2022/04/19 09:49:44;;;;;;;5.63;3.47;;;31.10;51.00;;;;;;5063373;28;20440;-80
2022/04/19 09:52:13;;;;;;;5.87;3.83;;;31.30;49.10;;;;;;5064107;28;20501;-80
2022/04/19 09:54:41;;;;;;;4.77;3.43;;;31.30;46.90;;;;;;5064146;28;20478;-80
2022/04/19 09:57:11;;;;;;;6.23;3.87;;;31.10;48.90;;;;;;5063775;28;20454;-80
2022/04/19 09:59:44;;;;;;;5.17;4.23;;;31.10;46.00;;;;;;5063484;28;20832;-79
2022/04/19 10:10:27;;;;;;;5.67;3.90;;;31.20;45.80;;;;;;5059956;28;20432;-78
2022/04/19 10:12:58;;;;;;;5.30;3.80;;;31.30;45.90;;;;;;5066969;28;20448;-80
2022/04/19 10:15:25;;;;;;;5.40;3.40;;;31.40;47.40;;;;;;5068025;28;20464;-81
2022/04/19 10:17:52;;;;;;;6.17;4.50;;;32.10;44.90;;;;;;5067790;28;20472;-80
2022/04/19 10:20:31;;;;;;;6.77;4.57;;;31.30;44.20;;;;;;5068648;28;20567;-81
2022/04/19 10:23:02;;;;;;;5.70;4.30;;;31.30;47.30;;;;;;5067745;28;20491;-81
2022/04/19 10:25:40;;;;;;;5.50;4.60;;;31.70;44.20;;;;;;5068302;28;20525;-79
2022/04/19 10:28:09;;;;;;;6.03;4.70;;;32.50;46.20;;;;;;5067889;28;20539;-80
2022/04/19 10:30:37;;;;;;;5.60;4.50;;;32.50;45.70;;;;;;5069312;28;20526;-80
2022/04/19 10:33:38;;;;;;;7.50;5.00;;;33.20;42.70;;;;;;5065320;28;20444;-80
2022/04/19 10:36:13;;;;;;;6.30;5.23;;;32.90;42.60;;;;;;5067752;28;20454;-81
2022/04/19 10:38:39;;;;;;;6.73;5.10;;;31.90;43.00;;;;;;5065885;28;20994;-81
2022/04/19 10:41:06;;;;;;;7.03;5.03;;;30.50;42.70;;;;;;5067659;28;20435;-80
2022/04/19 10:43:34;;;;;;;7.40;5.70;;;29.60;44.40;;;;;;5065379;28;20504;-80
2022/04/19 10:46:20;;;;;;;6.57;4.60;;;30.60;47.90;;;;;;5066700;28;20470;-79
2022/04/19 10:49:24;;;;;;;5.90;4.47;;;32.00;45.70;;;;;;5067853;28;20487;-80
2022/04/19 10:51:52;;;;;;;6.60;4.87;;;33.10;47.80;;;;;;5066885;28;20456;-79
2022/04/19 10:54:52;;;;;;;9.33;4.73;;;33.00;44.50;;;;;;5062389;28;20521;-80
2022/04/19 11:00:02;;;;;;;8.97;6.40;;;33.70;43.00;;;;;;5049890;28;20433;-81
2022/04/19 11:02:36;;;;;;;8.80;5.23;;;33.30;40.40;;;;;;5065917;28;20480;-78
2022/04/19 11:05:03;;;;;;;6.33;5.20;;;32.50;42.30;;;;;;5048631;28;20483;-81
2022/04/19 11:07:43;;;;;;;6.83;5.30;;;31.40;41.40;;;;;;5066669;28;20498;-79
2022/04/19 11:10:10;;;;;;;6.73;5.20;;;31.60;42.70;;;;;;5068510;28;20471;-79
2022/04/19 11:12:58;;;;;;;8.23;4.83;;;32.90;43.20;;;;;;5066772;28;20547;-81
2022/04/19 11:15:42;;;;;;;4.73;4.03;;;33.70;45.40;;;;;;5067237;28;20484;-78
2022/04/19 11:18:25;;;;;;;6.93;5.07;;;34.20;45.70;;;;;;5074640;28;20499;-79
2022/04/19 11:20:53;;;;;;;5.80;5.10;;;35.20;43.00;;;;;;5061666;28;20442;-79
2022/04/19 11:23:21;;;;;;;7.70;6.10;;;34.10;39.50;;;;;;5065634;28;20510;-80
2022/04/19 11:25:51;;;;;;;9.60;5.10;;;33.70;40.70;;;;;;5059209;28;20901;-80
2022/04/19 11:28:35;;;;;;;8.43;5.07;;;32.60;40.50;;;;;;5066645;28;20864;-80
2022/04/19 11:31:16;;;;;;;7.97;3.97;;;33.60;42.80;;;;;;5067125;28;20455;-79
2022/04/19 11:33:43;;;;;;;6.83;4.60;;;33.90;41.70;;;;;;5065266;28;20480;-78
2022/04/19 11:36:12;;;;;;;5.60;4.80;;;34.00;43.90;;;;;;5063902;28;20531;-79
2022/04/19 11:38:44;;;;;;;6.10;4.57;;;34.50;42.70;;;;;;5058627;28;20460;-80
2022/04/19 11:46:46;;;;;;;8.77;5.20;;;33.90;39.20;;;;;;5052748;28;20440;-81
2022/04/19 11:49:26;;;;;;;5.20;4.60;;;35.10;41.80;;;;;;5055052;28;20574;-79
2022/04/19 11:51:56;;;;;;;6.70;5.43;;;35.10;43.20;;;;;;5088367;22;20550;-81
2022/04/19 11:54:24;;;;;;;7.27;5.00;;;34.60;39.90;;;;;;5068071;28;20508;-82
2022/04/19 11:56:52;;;;;;;6.43;4.87;;;34.70;40.40;;;;;;5082217;28;20473;-81
2022/04/19 11:59:24;;;;;;;6.10;5.07;;;33.10;39.90;;;;;;5069642;28;20444;-81
2022/04/19 12:01:53;;;;;;;6.10;4.50;;;34.00;41.00;;;;;;5079319;28;20472;-82
2022/04/19 12:04:20;;;;;;;5.67;3.80;;;34.40;42.60;;;;;;5068755;28;20538;-81
2022/04/19 12:06:48;;;;;;;4.50;3.97;;;34.90;42.20;;;;;;5068851;28;20464;-82
2022/04/19 12:09:17;;;;;;;5.70;4.43;;;34.70;39.70;;;;;;5068593;28;20621;-81
2022/04/19 12:11:45;;;;;;;5.87;4.43;;;34.20;39.20;;;;;;5068655;28;20461;-82
2022/04/19 12:14:23;;;;;;;6.73;5.27;;;34.30;39.50;;;;;;5071506;28;20480;-81
2022/04/19 12:16:57;;;;;;;6.23;4.90;;;33.70;38.60;;;;;;5069610;28;20442;-83
2022/04/19 12:19:34;;;;;;;5.93;3.93;;;33.50;41.30;;;;;;5074354;28;20489;-82
2022/04/19 12:22:01;;;;;;;4.63;3.67;;;;;;;;;;5087432;28;20492;-82
2022/04/19 12:24:31;;;;;;;4.70;3.70;;;33.90;40.50;;;;;;5085976;28;20450;-82
2022/04/19 12:27:05;;;;;;;6.00;4.03;;;32.30;38.90;;;;;;5085846;28;20473;-82
2022/04/19 12:29:33;;;;;;;4.70;4.00;;;32.90;39.50;;;;;;5060936;28;20486;-82
2022/04/19 12:32:02;;;;;;;4.20;3.60;;;33.30;42.50;;;;;;5072887;28;20747;-81
2022/04/19 12:34:34;;;;;;;5.77;4.10;;;34.40;41.70;;;;;;5070982;28;20471;-81
2022/04/19 12:37:06;;;;;;;3.70;3.23;;;35.60;39.70;;;;;;5067720;28;20528;-80
2022/04/19 12:39:33;;;;;;;5.57;4.10;;;36.60;41.70;;;;;;5067151;28;20475;-82
2022/04/19 12:42:07;;;;;;;4.83;4.20;;;35.30;37.80;;;;;;5064212;28;20474;-81
2022/04/19 12:44:35;;;;;;;4.30;3.83;;;33.90;39.40;;;;;;5061776;28;20576;-81
2022/04/19 12:47:11;;;;;;;5.27;3.47;;;34.00;40.50;;;;;;5078253;28;20449;-82
2022/04/19 12:49:43;;;;;;;5.17;3.87;;;34.00;40.60;;;;;;5066821;28;20482;-81
2022/04/19 12:52:10;;;;;;;6.80;4.77;;;33.20;39.70;;;;;;5061308;28;20484;-82
2022/04/19 12:54:38;;;;;;;4.70;4.10;;;33.80;40.00;;;;;;5060317;28;20455;-81
2022/04/19 12:57:15;;;;;;;5.07;4.57;;;33.10;41.00;;;;;;5061976;28;20459;-82
2022/04/19 12:59:43;;;;;;;7.43;4.00;;;32.80;39.30;;;;;;5060345;28;20451;-82
2022/04/19 13:02:15;;;;;;;4.77;4.27;;;33.60;41.40;;;;;;5064350;28;20823;-81
2022/04/19 13:04:42;;;;;;;5.13;3.33;;;34.00;42.10;;;;;;5063148;28;20476;-80
2022/04/19 13:12:38;;;;;;;6.50;4.20;;;34.60;40.10;;;;;;5072375;28;20474;-81
2022/04/19 13:15:07;;;;;;;5.00;3.93;;;35.20;40.40;;;;;;5067469;28;20479;-82
2022/04/19 13:17:37;;;;;;;5.27;4.00;;;36.00;41.10;;;;;;5064843;28;20458;-82
2022/04/19 13:20:05;;;;;;;5.83;4.40;;;35.60;39.30;;;;;;5063466;28;20498;-81
2022/04/19 13:22:33;;;;;;;6.13;4.50;;;36.30;37.90;;;;;;5065779;28;20475;-83
2022/04/19 13:25:00;;;;;;;6.07;5.47;;;;;;;;;;5063994;28;20452;-81
2022/04/19 13:27:29;;;;;;;7.30;4.70;;;34.20;37.20;;;;;;5062545;28;20538;-80
2022/04/19 13:29:56;;;;;;;6.87;3.47;;;32.40;37.70;;;;;;5079210;28;20435;-81
2022/04/19 13:32:22;;;;;;;3.50;2.93;;;33.30;42.10;;;;;;5084786;28;20474;-81
2022/04/19 13:34:51;;;;;;;4.10;3.47;;;34.30;42.70;;;;;;5065222;28;20483;-82
2022/04/19 13:38:23;;;;;;;4.60;4.20;;;34.90;42.00;;;;;;5077184;28;20454;-82
2022/04/19 13:40:05;;;;;;;5.10;4.10;;;34.50;39.40;;;;;;5080509;28;20444;-81
2022/04/19 13:42:32;;;;;;;4.10;3.70;;;35.30;38.30;;;;;;5065012;28;20479;-81
2022/04/19 13:44:59;;;;;;;4.80;3.33;;;34.80;37.70;;;;;;5066462;28;20514;-81